Weather at Presidente Juscelino Kubitschek International Airport

Public forecast

Using degrees Celsius for public forecast. Weather courtesy of forecast.io.

Current aviation weather report (METAR) for Presidente Juscelino Kubitschek International Airport

2024/04/25 01:00 (retrieved 16 minutes ago)

SBBR 250100Z 07006KT 030V090 9999 BKN040 BKN100 24/18 Q1020

Closest aviation forecast (TAF) to Presidente Juscelino Kubitschek International Airport

Forecast is more than 6 hours old.

Closest forecast is Padre Aldamiz International Airport, 1,254.7 nm (2,323.7 km) W.

2024/04/24 18:33 (retrieved 7 hours ago)

TAF SPTU 241700Z 2418/2518 VRB06KT 9999 SCT020 TX33/2420Z TN24/2511Z TEMPO 2419/2421 SCT020TCU